Time;durP1;ratioP1;P1;durP2;ratioP2;P2;SDS_P1;SDS_P2;PMS_P1;PMS_P2;Temp;Humidity;BMP_temperature;BMP_pressure;BME280_temperature;BME280_humidity;BME280_pressure;Samples;Min_cycle;Max_cycle;Signal;HPM_P1;HPM_P2
2021/03/11 00:01:32;;;;;;;9.38;6.57;;;17.80;63.40;;;;;;5005211;28;20254;-40
2021/03/11 00:03:57;;;;;;;7.95;6.60;;;17.80;63.30;;;;;;4990116;28;20071;-40
2021/03/11 00:06:23;;;;;;;8.35;6.00;;;17.80;63.50;;;;;;4994621;28;20563;-40
2021/03/11 00:08:48;;;;;;;7.65;6.05;;;17.80;63.30;;;;;;5007375;28;20042;-37
2021/03/11 00:11:14;;;;;;;8.23;6.25;;;17.80;63.30;;;;;;5007325;28;20426;-36
2021/03/11 00:13:39;;;;;;;8.50;6.40;;;17.80;63.30;;;;;;5008806;28;20026;-36
2021/03/11 00:16:06;;;;;;;8.20;6.10;;;17.80;63.30;;;;;;5005129;28;20026;-35
2021/03/11 00:18:31;;;;;;;6.65;5.78;;;17.90;63.30;;;;;;5006190;28;20092;-37
2021/03/11 00:20:57;;;;;;;6.30;5.70;;;17.80;63.20;;;;;;5007816;28;20408;-35
2021/03/11 00:23:23;;;;;;;6.57;5.78;;;17.80;63.30;;;;;;4997126;28;20041;-38
2021/03/11 00:25:48;;;;;;;7.72;6.47;;;17.80;63.30;;;;;;5006104;28;20022;-35
2021/03/11 00:28:14;;;;;;;7.00;5.97;;;17.80;63.40;;;;;;5008584;28;20504;-35
2021/03/11 00:30:39;;;;;;;6.00;5.40;;;17.80;63.50;;;;;;5008818;28;20053;-37
2021/03/11 00:33:05;;;;;;;6.50;5.43;;;17.80;63.40;;;;;;5008844;28;20121;-38
2021/03/11 00:35:30;;;;;;;6.63;5.53;;;17.80;63.30;;;;;;5008109;28;20030;-35
2021/03/11 00:37:56;;;;;;;6.22;5.38;;;17.80;63.30;;;;;;4999059;28;20039;-37
2021/03/11 00:40:22;;;;;;;6.38;5.32;;;17.80;63.30;;;;;;4996193;28;20022;-40
2021/03/11 00:42:48;;;;;;;6.78;5.95;;;17.80;63.20;;;;;;4995295;28;20018;-39
2021/03/11 00:45:14;;;;;;;6.32;5.18;;;17.80;63.20;;;;;;5008721;28;20109;-41
2021/03/11 00:47:40;;;;;;;5.97;5.38;;;17.90;63.00;;;;;;5011892;28;20109;-38
2021/03/11 00:50:07;;;;;;;5.55;5.05;;;17.90;63.00;;;;;;4992817;28;20028;-43
2021/03/11 00:52:33;;;;;;;5.32;4.82;;;17.90;63.20;;;;;;5007734;28;20084;-44
2021/03/11 00:54:58;;;;;;;5.30;4.82;;;17.90;63.10;;;;;;5005876;28;20046;-36
2021/03/11 00:57:24;;;;;;;5.43;4.90;;;17.90;63.00;;;;;;4993344;28;20497;-38
2021/03/11 00:59:49;;;;;;;5.93;5.13;;;17.90;63.00;;;;;;5007406;28;20519;-41
2021/03/11 01:02:15;;;;;;;4.85;4.40;;;17.80;63.20;;;;;;5007244;28;20064;-35
2021/03/11 01:04:40;;;;;;;4.75;4.32;;;17.80;63.20;;;;;;5008784;28;20041;-36
2021/03/11 01:07:06;;;;;;;5.00;4.60;;;17.80;63.20;;;;;;5004182;28;20460;-37
2021/03/11 01:09:32;;;;;;;5.80;4.38;;;17.80;63.30;;;;;;4997808;28;20038;-38
2021/03/11 01:11:57;;;;;;;5.70;4.60;;;17.80;63.20;;;;;;4994285;28;20629;-38
2021/03/11 01:14:23;;;;;;;5.38;4.55;;;17.80;63.30;;;;;;5007352;28;20447;-38
2021/03/11 01:16:49;;;;;;;4.43;4.03;;;17.80;63.30;;;;;;5007162;28;20108;-38
2021/03/11 01:19:15;;;;;;;4.38;3.97;;;17.80;63.30;;;;;;5007658;28;20100;-41
2021/03/11 01:21:41;;;;;;;4.45;4.05;;;17.80;63.40;;;;;;5005500;28;20022;-39
2021/03/11 01:24:07;;;;;;;4.07;3.58;;;17.70;63.40;;;;;;5006677;28;20030;-36
2021/03/11 01:26:32;;;;;;;3.95;3.65;;;17.70;63.60;;;;;;5006503;28;20404;-35
2021/03/11 01:28:59;;;;;;;5.18;4.50;;;17.70;63.50;;;;;;5003453;28;20034;-37
2021/03/11 01:31:27;;;;;;;4.35;3.95;;;17.70;63.70;;;;;;5007044;28;20033;-38
2021/03/11 01:33:52;;;;;;;4.32;3.85;;;17.70;63.80;;;;;;5007485;28;20113;-38
2021/03/11 01:36:18;;;;;;;3.75;3.45;;;17.70;63.60;;;;;;5007242;28;20101;-41
2021/03/11 01:38:43;;;;;;;4.75;4.15;;;17.70;63.50;;;;;;5000341;28;20034;-36
2021/03/11 01:41:09;;;;;;;4.25;3.85;;;17.70;63.70;;;;;;4996388;28;20571;-38
2021/03/11 01:43:34;;;;;;;3.58;3.22;;;17.70;63.70;;;;;;5003751;28;20041;-36
2021/03/11 01:46:00;;;;;;;3.75;3.30;;;17.70;63.60;;;;;;5007146;28;20504;-40
2021/03/11 01:48:26;;;;;;;3.80;3.45;;;17.70;63.70;;;;;;5008055;28;20057;-35
2021/03/11 01:50:51;;;;;;;3.55;3.25;;;17.70;63.70;;;;;;5010295;28;20101;-38
2021/03/11 01:53:17;;;;;;;3.40;3.10;;;17.70;63.80;;;;;;5007965;28;20092;-42
2021/03/11 01:55:42;;;;;;;3.53;3.25;;;17.70;63.80;;;;;;4975278;28;20076;-40
2021/03/11 01:58:08;;;;;;;3.63;3.17;;;17.70;63.80;;;;;;4972910;28;20031;-41
2021/03/11 02:00:33;;;;;;;3.47;3.17;;;17.70;63.80;;;;;;4985363;28;20065;-36
2021/03/11 02:02:59;;;;;;;3.83;3.40;;;17.70;63.80;;;;;;5008582;28;20022;-35
2021/03/11 02:05:25;;;;;;;3.42;3.22;;;17.70;63.90;;;;;;4993167;28;20037;-37
2021/03/11 02:07:50;;;;;;;3.13;2.92;;;17.70;63.80;;;;;;5003366;28;20388;-38
2021/03/11 02:10:19;;;;;;;3.55;3.25;;;17.70;63.80;;;;;;5002456;28;20030;-33
2021/03/11 02:12:47;;;;;;;3.10;2.85;;;17.70;63.80;;;;;;4973638;28;20030;-36
2021/03/11 02:15:27;;;;;;;3.10;2.90;;;17.60;63.80;;;;;;4993910;28;20037;-37
2021/03/11 02:18:08;;;;;;;3.33;3.03;;;17.60;63.90;;;;;;4994994;28;20046;-37
2021/03/11 02:20:53;;;;;;;3.22;2.92;;;17.60;63.90;;;;;;5008036;28;20041;-36
2021/03/11 02:23:56;;;;;;;4.03;2.72;;;17.60;64.00;;;;;;4999814;28;20026;-34
2021/03/11 02:26:37;;;;;;;2.92;2.70;;;17.60;63.90;;;;;;5009983;28;20042;-37
2021/03/11 02:29:12;;;;;;;2.88;2.60;;;17.60;64.00;;;;;;4995556;28;20500;-38
2021/03/11 02:31:39;;;;;;;3.45;2.90;;;17.70;63.90;;;;;;4990945;28;20543;-35
2021/03/11 02:34:07;;;;;;;2.72;2.53;;;17.70;63.80;;;;;;4995390;28;20022;-37
2021/03/11 02:36:33;;;;;;;2.88;2.58;;;17.60;63.90;;;;;;4992892;28;20038;-39
2021/03/11 02:38:59;;;;;;;2.70;2.50;;;17.60;64.00;;;;;;4995071;28;20040;-38
2021/03/11 02:41:25;;;;;;;2.70;2.50;;;17.60;64.00;;;;;;4984336;28;20085;-36
2021/03/11 02:43:50;;;;;;;3.03;2.72;;;17.70;63.90;;;;;;5004271;28;20041;-40
2021/03/11 02:46:16;;;;;;;2.75;2.55;;;17.60;63.80;;;;;;4978407;28;20018;-38
2021/03/11 02:48:43;;;;;;;2.13;2.03;;;17.60;63.90;;;;;;4978458;28;20408;-38
2021/03/11 02:51:08;;;;;;;3.47;2.28;;;17.70;63.90;;;;;;4978413;28;20065;-32
2021/03/11 02:53:34;;;;;;;2.30;2.10;;;17.70;63.80;;;;;;4997224;28;20069;-37
2021/03/11 02:55:59;;;;;;;2.20;2.00;;;17.70;63.80;;;;;;4979326;28;20030;-38
2021/03/11 02:58:25;;;;;;;2.30;2.20;;;17.70;63.90;;;;;;4994360;28;20034;-39
2021/03/11 03:00:51;;;;;;;2.17;1.98;;;17.70;63.80;;;;;;4978592;28;20025;-39
2021/03/11 03:03:16;;;;;;;2.05;1.95;;;17.70;63.90;;;;;;4993836;28;20053;-35
2021/03/11 03:05:42;;;;;;;2.17;1.98;;;17.70;63.80;;;;;;4996603;28;20101;-37
2021/03/11 03:08:07;;;;;;;2.60;2.40;;;17.70;63.70;;;;;;4994549;28;20477;-39
2021/03/11 03:10:34;;;;;;;2.03;1.88;;;17.70;63.90;;;;;;4995327;28;20042;-37
2021/03/11 03:13:01;;;;;;;2.08;1.98;;;17.70;63.90;;;;;;5006787;28;20153;-37
2021/03/11 03:15:27;;;;;;;2.40;2.20;;;17.70;64.00;;;;;;4978415;28;20110;-37
2021/03/11 03:17:52;;;;;;;2.05;1.88;;;17.70;64.00;;;;;;4978097;28;20114;-41
2021/03/11 03:20:19;;;;;;;1.67;1.58;;;17.70;64.00;;;;;;4986215;28;20030;-32
2021/03/11 03:22:44;;;;;;;1.70;1.60;;;17.70;63.90;;;;;;5010540;28;20037;-34
2021/03/11 03:25:11;;;;;;;2.05;1.80;;;17.70;63.90;;;;;;4974643;28;20070;-33
2021/03/11 03:27:37;;;;;;;2.00;1.90;;;17.70;64.00;;;;;;4995186;28;20038;-35
2021/03/11 03:30:13;;;;;;;1.70;1.60;;;17.70;64.00;;;;;;4992649;28;20048;-40
2021/03/11 03:32:39;;;;;;;1.80;1.70;;;17.70;64.00;;;;;;5013576;28;20022;-35
2021/03/11 03:35:06;;;;;;;2.00;1.90;;;17.70;64.10;;;;;;5005869;28;20385;-36
2021/03/11 03:37:32;;;;;;;1.60;1.50;;;17.60;64.10;;;;;;4994362;28;20040;-35
2021/03/11 03:39:58;;;;;;;1.90;1.70;;;17.60;64.20;;;;;;5007468;28;20448;-37
2021/03/11 03:42:23;;;;;;;1.70;1.60;;;17.60;64.10;;;;;;4999396;28;20037;-37
2021/03/11 03:44:49;;;;;;;1.73;1.63;;;17.70;64.10;;;;;;4994316;28;20037;-36
2021/03/11 03:47:14;;;;;;;2.00;1.80;;;17.70;64.00;;;;;;4982768;28;20035;-39
2021/03/11 03:49:40;;;;;;;3.38;1.90;;;17.70;64.00;;;;;;4997319;28;20026;-35
2021/03/11 03:52:06;;;;;;;2.45;1.58;;;17.70;64.00;;;;;;5000779;28;20032;-37
2021/03/11 03:54:34;;;;;;;1.67;1.58;;;17.70;63.90;;;;;;4991924;28;20121;-40
2021/03/11 03:57:10;;;;;;;1.80;1.70;;;17.60;64.00;;;;;;4993577;28;20026;-34
2021/03/11 03:59:37;;;;;;;1.70;1.60;;;17.60;64.00;;;;;;4978548;28;20112;-35
2021/03/11 04:02:05;;;;;;;1.58;1.48;;;17.70;64.00;;;;;;5005805;28;20381;-35
2021/03/11 04:04:36;;;;;;;1.70;1.55;;;17.60;64.00;;;;;;4975686;28;20033;-40
2021/03/11 04:07:01;;;;;;;1.58;1.48;;;17.60;64.10;;;;;;5006929;28;20018;-35
2021/03/11 04:09:27;;;;;;;1.40;1.30;;;17.60;64.20;;;;;;4992166;28;20032;-37
2021/03/11 04:11:53;;;;;;;1.58;1.42;;;17.60;64.20;;;;;;4991593;28;20500;-35
2021/03/11 04:14:18;;;;;;;1.95;1.77;;;17.60;64.20;;;;;;4970894;28;20061;-36
2021/03/11 04:16:44;;;;;;;1.75;1.60;;;17.60;64.10;;;;;;4989776;28;20022;-36
2021/03/11 04:19:10;;;;;;;1.45;1.33;;;17.60;64.20;;;;;;4993042;28;20037;-37
2021/03/11 04:21:36;;;;;;;1.58;1.48;;;17.60;64.20;;;;;;4974941;28;20041;-36
2021/03/11 04:24:01;;;;;;;1.40;1.27;;;17.60;64.10;;;;;;4993385;28;20026;-35
2021/03/11 04:26:28;;;;;;;1.42;1.30;;;17.60;64.10;;;;;;4959947;28;20027;-37
2021/03/11 04:28:54;;;;;;;1.55;1.45;;;17.60;64.20;;;;;;4990737;28;20026;-37
2021/03/11 04:31:19;;;;;;;1.38;1.27;;;17.60;64.20;;;;;;4973202;28;20041;-35
2021/03/11 04:33:45;;;;;;;1.20;1.10;;;17.60;64.20;;;;;;4993014;28;20084;-34
2021/03/11 04:36:11;;;;;;;1.48;1.38;;;17.60;64.20;;;;;;4975805;28;20044;-42
2021/03/11 04:38:37;;;;;;;1.50;1.40;;;17.60;64.20;;;;;;4979723;28;20116;-36
2021/03/11 04:41:03;;;;;;;1.20;1.20;;;17.60;64.20;;;;;;4977023;28;20465;-37
2021/03/11 04:43:28;;;;;;;1.65;1.30;;;17.60;64.20;;;;;;4992996;28;20025;-34
2021/03/11 04:45:54;;;;;;;1.40;1.30;;;17.60;64.20;;;;;;4990684;28;20034;-36
2021/03/11 04:48:20;;;;;;;1.30;1.20;;;17.60;64.20;;;;;;4992120;28;20058;-38
2021/03/11 04:50:46;;;;;;;1.38;1.27;;;17.60;64.10;;;;;;4993849;28;20018;-36
2021/03/11 04:53:12;;;;;;;1.60;1.50;;;17.60;64.10;;;;;;5007553;28;20503;-37
2021/03/11 04:55:37;;;;;;;1.23;1.13;;;17.60;64.00;;;;;;4992498;28;20026;-40
2021/03/11 04:58:03;;;;;;;1.40;1.30;;;17.60;64.00;;;;;;4991709;28;20046;-37
2021/03/11 05:00:29;;;;;;;1.73;1.17;;;17.60;64.00;;;;;;5007885;28;20026;-35
2021/03/11 05:02:55;;;;;;;1.20;1.10;;;17.60;63.90;;;;;;5000031;28;20026;-35
2021/03/11 05:05:35;;;;;;;1.10;1.10;;;17.60;63.90;;;;;;4993327;28;20076;-32
2021/03/11 05:08:01;;;;;;;1.00;1.00;;;17.60;63.90;;;;;;5005151;28;20036;-37
2021/03/11 05:10:26;;;;;;;1.15;1.05;;;17.60;63.80;;;;;;5003249;28;20106;-36
2021/03/11 05:12:52;;;;;;;1.15;1.05;;;17.60;63.80;;;;;;5004272;28;20114;-37
2021/03/11 05:15:17;;;;;;;1.30;1.20;;;17.60;63.90;;;;;;5007619;28;20057;-39
2021/03/11 05:17:43;;;;;;;1.20;1.10;;;17.60;64.00;;;;;;4996924;28;20022;-36
2021/03/11 05:20:09;;;;;;;1.30;1.20;;;17.60;64.00;;;;;;5006763;28;20052;-35
2021/03/11 05:22:35;;;;;;;1.10;1.05;;;17.60;63.90;;;;;;4999916;28;20029;-38
2021/03/11 05:25:00;;;;;;;0.90;0.90;;;17.60;63.90;;;;;;4999443;28;20018;-39
2021/03/11 05:27:26;;;;;;;1.00;0.90;;;17.60;64.00;;;;;;5006954;28;20048;-38
2021/03/11 05:29:51;;;;;;;1.05;0.93;;;17.60;64.90;;;;;;5005428;28;20065;-36
2021/03/11 05:32:17;;;;;;;1.35;1.25;;;17.60;64.00;;;;;;5009446;28;20041;-36
2021/03/11 05:34:44;;;;;;;0.73;0.73;;;17.60;64.00;;;;;;5003622;28;20049;-36
2021/03/11 05:37:10;;;;;;;0.98;0.88;;;17.60;64.00;;;;;;5004275;28;20092;-38
2021/03/11 05:39:35;;;;;;;1.20;1.10;;;17.60;63.90;;;;;;4992296;28;20555;-38
2021/03/11 05:42:01;;;;;;;1.10;0.63;;;17.60;63.90;;;;;;5007238;28;20030;-39
2021/03/11 05:44:27;;;;;;;0.88;0.88;;;17.60;63.90;;;;;;4990105;28;20084;-39
2021/03/11 05:46:53;;;;;;;0.90;0.90;;;17.60;63.80;;;;;;5005382;28;20025;-34
2021/03/11 05:49:18;;;;;;;1.00;0.95;;;17.60;63.80;;;;;;5006525;28;20396;-36
2021/03/11 05:51:44;;;;;;;0.80;0.80;;;17.60;63.80;;;;;;4989673;28;20019;-37
2021/03/11 05:54:10;;;;;;;0.70;0.70;;;17.60;63.80;;;;;;4990289;28;20575;-38
2021/03/11 05:56:35;;;;;;;1.00;0.90;;;17.60;63.90;;;;;;5010389;28;20558;-36
2021/03/11 05:59:01;;;;;;;0.90;0.90;;;17.60;63.90;;;;;;5008093;28;20554;-37
2021/03/11 06:01:27;;;;;;;1.40;0.90;;;17.60;63.90;;;;;;5007330;28;20022;-35
2021/03/11 06:03:54;;;;;;;0.70;0.70;;;17.60;64.00;;;;;;4972946;28;20030;-38
2021/03/11 06:06:20;;;;;;;0.82;0.82;;;17.60;63.80;;;;;;4988046;28;20381;-37
2021/03/11 06:08:46;;;;;;;0.75;0.75;;;17.60;63.90;;;;;;5010946;28;20042;-38
2021/03/11 06:11:12;;;;;;;0.75;0.60;;;17.60;64.50;;;;;;4981806;28;20069;-39
2021/03/11 06:13:39;;;;;;;1.00;0.90;;;17.60;63.90;;;;;;4981166;28;20130;-34
2021/03/11 06:16:07;;;;;;;0.82;0.70;;;17.60;63.90;;;;;;4988945;28;20031;-35
2021/03/11 06:18:33;;;;;;;1.20;1.00;;;17.60;63.90;;;;;;4974046;28;20079;-35
2021/03/11 06:21:01;;;;;;;0.95;0.88;;;17.60;63.90;;;;;;4990255;28;20042;-36
2021/03/11 06:23:28;;;;;;;1.33;0.80;;;17.60;63.90;;;;;;4998659;28;20065;-37
2021/03/11 06:25:54;;;;;;;0.98;0.80;;;17.60;64.00;;;;;;5006032;28;20057;-37
2021/03/11 06:28:46;;;;;;;1.13;1.00;;;17.50;63.90;;;;;;4972819;28;20464;-37
2021/03/11 06:31:41;;;;;;;0.90;0.80;;;17.60;63.90;;;;;;4975199;28;20039;-37
2021/03/11 06:34:20;;;;;;;0.70;0.70;;;17.50;63.90;;;;;;4954629;28;20073;-37
2021/03/11 06:36:46;;;;;;;1.40;0.88;;;17.60;64.00;;;;;;4967374;28;20085;-37
2021/03/11 06:39:28;;;;;;;1.42;1.00;;;17.50;64.00;;;;;;4968383;28;20038;-38
2021/03/11 06:41:54;;;;;;;2.35;1.00;;;17.60;63.90;;;;;;4973730;28;20045;-35
2021/03/11 06:44:34;;;;;;;0.90;0.80;;;17.60;63.80;;;;;;4968023;28;20113;-39
2021/03/11 06:47:00;;;;;;;1.00;0.80;;;17.70;63.80;;;;;;4958686;28;20031;-37
2021/03/11 06:49:26;;;;;;;1.10;0.70;;;17.70;63.60;;;;;;4963194;28;20031;-37
2021/03/11 06:52:11;;;;;;;0.65;0.65;;;17.60;63.60;;;;;;4966895;28;20367;-39
2021/03/11 06:55:00;;;;;;;0.90;0.70;;;17.60;63.70;;;;;;4967637;28;20034;-37
2021/03/11 06:57:32;;;;;;;1.15;0.60;;;17.60;63.60;;;;;;4960583;28;20058;-42
2021/03/11 06:59:59;;;;;;;0.98;0.88;;;17.60;63.60;;;;;;4968821;28;20062;-42
2021/03/11 07:02:25;;;;;;;0.80;0.70;;;17.60;64.00;;;;;;4974349;28;20027;-42
2021/03/11 07:04:50;;;;;;;0.88;0.63;;;17.60;64.20;;;;;;4969845;28;20166;-40
2021/03/11 07:07:20;;;;;;;1.23;0.80;;;17.60;64.40;;;;;;4968118;28;20111;-41
2021/03/11 07:09:49;;;;;;;1.17;1.08;;;17.60;64.60;;;;;;4981478;28;20030;-42
2021/03/11 07:12:15;;;;;;;1.02;0.90;;;17.60;64.50;;;;;;4958921;28;20023;-41
2021/03/11 07:14:40;;;;;;;2.47;0.88;;;17.60;65.30;;;;;;4967134;28;20031;-44
2021/03/11 07:17:24;;;;;;;2.55;1.00;;;17.70;65.70;;;;;;4968536;28;20482;-40
2021/03/11 07:20:10;;;;;;;2.22;1.13;;;17.70;66.10;;;;;;4972035;28;20560;-43
2021/03/11 07:22:35;;;;;;;1.77;1.15;;;17.60;66.10;;;;;;4962848;28;20702;-40
2021/03/11 07:25:01;;;;;;;3.63;0.98;;;17.60;66.10;;;;;;4970503;28;20087;-42
2021/03/11 07:27:40;;;;;;;2.20;1.00;;;17.60;66.40;;;;;;4971090;28;20509;-40
2021/03/11 07:30:06;;;;;;;1.33;0.90;;;17.60;66.70;;;;;;4990259;28;20060;-36
2021/03/11 07:32:35;;;;;;;2.03;1.27;;;17.60;66.10;;;;;;5013996;28;20095;-41
2021/03/11 07:35:04;;;;;;;1.50;1.00;;;17.70;66.50;;;;;;5011301;28;20021;-39
2021/03/11 07:37:29;;;;;;;7.15;1.55;;;17.60;66.10;;;;;;5009760;28;20113;-43
2021/03/11 07:39:59;;;;;;;2.63;1.00;;;17.60;66.30;;;;;;4991923;28;20153;-44
2021/03/11 07:42:25;;;;;;;1.45;1.00;;;17.70;65.40;;;;;;5009276;28;20032;-45
2021/03/11 07:44:51;;;;;;;2.10;0.88;;;17.70;65.60;;;;;;5010841;28;20033;-44
2021/03/11 07:47:17;;;;;;;3.25;1.10;;;17.70;65.10;;;;;;5011833;28;20037;-45
2021/03/11 07:49:43;;;;;;;3.15;1.20;;;17.80;65.10;;;;;;4989811;28;20660;-44
2021/03/11 07:52:09;;;;;;;2.92;1.30;;;17.70;65.40;;;;;;4969303;28;20041;-44
2021/03/11 07:54:35;;;;;;;1.77;1.35;;;17.60;66.00;;;;;;4977705;28;20393;-45
2021/03/11 07:57:00;;;;;;;1.35;1.00;;;17.60;66.00;;;;;;4995587;28;20045;-44
2021/03/11 07:59:26;;;;;;;1.60;1.20;;;17.60;66.10;;;;;;4998489;28;20038;-44
2021/03/11 08:01:53;;;;;;;1.67;1.10;;;17.60;66.10;;;;;;5005784;28;20378;-45
2021/03/11 08:04:19;;;;;;;1.45;0.98;;;17.60;66.20;;;;;;5005230;28;20520;-44
2021/03/11 08:06:45;;;;;;;1.90;1.20;;;17.70;66.10;;;;;;5006452;28;20036;-44
2021/03/11 08:09:11;;;;;;;2.83;1.10;;;17.60;66.10;;;;;;4976981;28;20026;-44
2021/03/11 08:11:38;;;;;;;2.50;1.80;;;17.60;66.10;;;;;;5009040;28;20439;-44
2021/03/11 08:14:23;;;;;;;3.63;1.90;;;17.60;66.00;;;;;;5005390;28;20038;-45
2021/03/11 08:16:49;;;;;;;2.90;1.90;;;17.60;65.90;;;;;;5009791;28;20034;-45
2021/03/11 08:19:34;;;;;;;3.15;2.00;;;17.60;65.80;;;;;;5005419;28;20045;-44
2021/03/11 08:21:59;;;;;;;2.78;1.80;;;17.60;65.80;;;;;;5007836;28;20080;-45
2021/03/11 08:24:47;;;;;;;3.13;1.80;;;17.60;65.70;;;;;;4993474;28;20445;-45
2021/03/11 08:27:31;;;;;;;2.00;1.70;;;17.60;65.80;;;;;;4994164;28;20566;-44
2021/03/11 08:29:57;;;;;;;2.03;1.77;;;17.60;65.70;;;;;;5008122;28;20087;-46
2021/03/11 08:32:48;;;;;;;1.90;1.60;;;17.60;65.60;;;;;;4987720;28;20022;-44
2021/03/11 08:35:28;;;;;;;2.97;2.03;;;17.70;65.80;;;;;;5007630;28;20565;-46
2021/03/11 08:37:59;;;;;;;3.25;2.53;;;17.60;65.50;;;;;;5007307;28;20600;-46
2021/03/11 08:40:37;;;;;;;6.28;2.92;;;17.70;65.30;;;;;;5005515;28;20084;-47
2021/03/11 08:43:03;;;;;;;4.53;3.28;;;17.70;65.10;;;;;;5006289;28;20025;-46
2021/03/11 08:45:35;;;;;;;3.60;3.30;;;17.70;65.00;;;;;;5008476;28;20109;-46
2021/03/11 08:48:20;;;;;;;3.33;2.90;;;17.70;64.80;;;;;;5009773;28;20088;-46
2021/03/11 08:50:47;;;;;;;3.97;3.20;;;17.70;64.50;;;;;;5011247;28;20088;-46
2021/03/11 08:53:12;;;;;;;4.15;3.28;;;17.80;64.40;;;;;;4990404;28;20100;-43
2021/03/11 08:55:39;;;;;;;3.03;2.83;;;17.80;64.30;;;;;;4991200;28;20564;-43
2021/03/11 08:58:26;;;;;;;4.03;3.03;;;17.80;64.10;;;;;;5006257;28;20049;-43
2021/03/11 09:01:03;;;;;;;4.40;3.58;;;17.80;64.00;;;;;;4990348;28;20070;-43
2021/03/11 09:03:41;;;;;;;5.05;3.40;;;17.80;64.00;;;;;;5006203;28;20038;-43
2021/03/11 09:06:08;;;;;;;4.10;3.53;;;17.80;64.80;;;;;;5006257;28;20026;-43
2021/03/11 09:08:44;;;;;;;8.13;4.13;;;17.80;64.00;;;;;;5012014;28;20736;-41
2021/03/11 09:11:10;;;;;;;4.28;3.42;;;17.80;64.20;;;;;;4996298;28;20027;-41
2021/03/11 09:13:39;;;;;;;5.10;3.47;;;17.80;64.30;;;;;;4997721;28;20045;-40
2021/03/11 09:16:05;;;;;;;4.15;3.72;;;17.80;64.20;;;;;;5002867;28;20049;-41
2021/03/11 09:18:30;;;;;;;5.68;3.78;;;17.80;64.20;;;;;;5006437;28;20140;-44
2021/03/11 09:20:58;;;;;;;4.72;3.70;;;17.80;64.40;;;;;;5006481;28;20022;-45
2021/03/11 09:23:40;;;;;;;4.03;3.25;;;17.80;64.40;;;;;;4990945;28;20087;-45
2021/03/11 09:26:07;;;;;;;6.93;4.03;;;17.80;64.70;;;;;;5006920;28;20030;-45
2021/03/11 09:28:33;;;;;;;12.63;9.40;;;17.80;64.80;;;;;;5005492;28;20030;-45
2021/03/11 09:30:59;;;;;;;13.25;10.32;;;17.90;64.50;;;;;;4956037;28;20390;-45
2021/03/11 09:33:24;;;;;;;10.30;8.30;;;17.80;63.60;;;;;;4967843;28;20039;-45
2021/03/11 09:35:51;;;;;;;15.07;9.85;;;17.80;63.50;;;;;;4972679;28;20031;-45
2021/03/11 09:38:23;;;;;;;15.07;11.07;;;17.80;63.60;;;;;;4971343;28;20046;-42
2021/03/11 09:40:51;;;;;;;17.80;11.70;;;17.80;64.10;;;;;;4969391;28;20042;-42
2021/03/11 09:43:30;;;;;;;20.00;13.07;;;17.80;63.50;;;;;;4967644;28;20139;-42
2021/03/11 09:46:00;;;;;;;20.38;14.63;;;17.80;64.50;;;;;;4968073;28;20027;-43
2021/03/11 09:48:42;;;;;;;20.13;14.32;;;17.80;64.70;;;;;;4970197;28;20035;-42
2021/03/11 09:51:10;;;;;;;20.48;14.85;;;17.90;65.00;;;;;;4968314;28;20481;-43
2021/03/11 09:53:38;;;;;;;19.00;14.38;;;17.90;65.00;;;;;;4970659;28;20450;-42
2021/03/11 09:56:04;;;;;;;20.33;15.20;;;17.90;65.00;;;;;;4971579;28;20517;-43
2021/03/11 09:58:30;;;;;;;22.75;15.32;;;17.90;64.90;;;;;;4966922;28;20589;-43
2021/03/11 10:00:55;;;;;;;21.40;15.30;;;18.00;65.00;;;;;;4968519;28;20110;-43
2021/03/11 10:03:23;;;;;;;18.48;14.77;;;18.00;65.10;;;;;;4969297;28;20065;-44
2021/03/11 10:05:59;;;;;;;20.88;14.40;;;18.00;65.00;;;;;;4969409;28;20038;-46
2021/03/11 10:08:32;;;;;;;17.65;13.98;;;18.00;65.00;;;;;;4971280;28;20035;-46
2021/03/11 10:10:57;;;;;;;18.33;13.70;;;18.00;64.90;;;;;;4968762;28;20417;-45
2021/03/11 10:13:36;;;;;;;18.23;13.20;;;18.00;65.10;;;;;;4967469;28;20035;-44
2021/03/11 10:16:03;;;;;;;17.33;12.77;;;18.00;65.00;;;;;;4968931;28;20037;-45
2021/03/11 10:18:29;;;;;;;17.08;13.30;;;18.00;65.10;;;;;;4968468;28;20046;-45
2021/03/11 10:21:21;;;;;;;15.48;12.20;;;18.10;65.10;;;;;;4970082;28;20040;-46
2021/03/11 10:23:49;;;;;;;13.27;10.73;;;18.10;65.00;;;;;;4969179;28;20035;-45
2021/03/11 10:26:15;;;;;;;16.02;12.45;;;18.10;64.80;;;;;;4967743;28;20041;-50
2021/03/11 10:28:41;;;;;;;14.02;11.82;;;18.20;64.90;;;;;;4968750;28;20396;-49
2021/03/11 10:31:07;;;;;;;14.00;10.63;;;18.40;64.00;;;;;;4971286;28;20043;-49
2021/03/11 10:33:34;;;;;;;12.35;10.43;;;18.40;64.20;;;;;;4969083;28;20054;-49
2021/03/11 10:36:29;;;;;;;15.20;10.88;;;18.50;64.10;;;;;;4972310;28;20038;-53
2021/03/11 10:39:05;;;;;;;13.45;10.40;;;18.50;63.90;;;;;;4960485;28;20054;-51
2021/03/11 10:41:31;;;;;;;14.63;10.68;;;18.50;63.80;;;;;;4970433;28;20022;-50
2021/03/11 10:44:07;;;;;;;13.68;10.43;;;18.50;63.70;;;;;;4964479;28;20049;-50
2021/03/11 10:46:32;;;;;;;15.98;10.80;;;18.50;63.70;;;;;;4969538;28;20042;-50
2021/03/11 10:49:02;;;;;;;11.18;9.63;;;18.60;63.80;;;;;;4773463;28;10000712;-44
2021/03/11 10:51:30;;;;;;;14.50;9.80;;;18.60;63.40;;;;;;4968194;28;20256;-48
2021/03/11 10:53:58;;;;;;;11.20;9.15;;;18.60;63.40;;;;;;4973962;28;20034;-45
2021/03/11 10:56:24;;;;;;;13.20;9.63;;;18.70;63.30;;;;;;4970533;28;20039;-51
2021/03/11 10:58:49;;;;;;;10.73;8.48;;;18.70;63.00;;;;;;4967091;28;20041;-51
2021/03/11 11:01:22;;;;;;;12.77;9.90;;;18.70;63.10;;;;;;4963491;28;20038;-49
2021/03/11 11:03:47;;;;;;;10.80;8.80;;;18.70;63.00;;;;;;4971351;28;20114;-48
2021/03/11 11:06:13;;;;;;;10.38;8.68;;;18.70;63.00;;;;;;4958808;28;20114;-46
2021/03/11 11:08:43;;;;;;;8.85;7.95;;;18.70;63.00;;;;;;4978778;28;20500;-48
2021/03/11 11:11:10;;;;;;;11.43;8.68;;;18.60;62.90;;;;;;4968687;28;20023;-53
2021/03/11 11:13:35;;;;;;;10.60;8.85;;;18.60;63.00;;;;;;4973473;28;20560;-47
2021/03/11 11:16:01;;;;;;;10.57;8.93;;;18.60;63.20;;;;;;4973025;28;20023;-49
2021/03/11 11:18:26;;;;;;;13.20;9.25;;;18.60;63.30;;;;;;4972955;28;20114;-49
2021/03/11 11:20:52;;;;;;;12.13;9.32;;;18.60;63.40;;;;;;4971316;28;20509;-48
2021/03/11 11:23:18;;;;;;;15.27;9.80;;;18.60;63.40;;;;;;4972440;28;20073;-45
2021/03/11 11:25:43;;;;;;;16.05;10.90;;;18.60;64.20;;;;;;4969860;28;20285;-45
2021/03/11 11:28:09;;;;;;;17.17;10.40;;;18.60;63.80;;;;;;4970045;28;20019;-46
2021/03/11 11:30:34;;;;;;;15.35;10.65;;;18.60;63.70;;;;;;4996255;28;20045;-40
2021/03/11 11:33:00;;;;;;;14.70;11.18;;;18.60;64.30;;;;;;5008780;28;20018;-45
2021/03/11 11:35:26;;;;;;;11.68;8.55;;;18.70;63.80;;;;;;5009117;28;20033;-45
2021/03/11 11:37:51;;;;;;;12.07;8.60;;;18.60;63.60;;;;;;5001512;28;20027;-42
2021/03/11 11:40:17;;;;;;;12.95;8.95;;;18.70;63.70;;;;;;4998410;28;20470;-46
2021/03/11 11:42:43;;;;;;;13.05;8.55;;;18.60;63.80;;;;;;5006451;28;20473;-46
2021/03/11 11:45:09;;;;;;;11.27;8.45;;;18.70;63.80;;;;;;5007732;28;20042;-45
2021/03/11 11:47:35;;;;;;;12.10;8.45;;;18.70;63.50;;;;;;4981706;28;20071;-41
2021/03/11 11:50:00;;;;;;;9.20;8.02;;;18.70;63.70;;;;;;5003400;28;20117;-45
2021/03/11 11:52:26;;;;;;;13.77;8.88;;;18.70;63.60;;;;;;5008858;28;20080;-46
2021/03/11 11:54:52;;;;;;;9.95;8.05;;;18.80;63.90;;;;;;5008601;28;20034;-43
2021/03/11 11:57:18;;;;;;;9.95;7.82;;;18.80;63.50;;;;;;5010688;28;20057;-45
2021/03/11 11:59:43;;;;;;;10.20;7.63;;;18.80;63.50;;;;;;5013205;28;20040;-45
2021/03/11 12:02:09;;;;;;;9.45;6.85;;;18.80;63.60;;;;;;5005446;28;20042;-49
2021/03/11 12:04:35;;;;;;;8.75;6.57;;;18.80;63.50;;;;;;5001004;28;20034;-48
2021/03/11 12:07:00;;;;;;;8.73;7.32;;;18.80;63.60;;;;;;5001543;28;20029;-52
2021/03/11 12:09:26;;;;;;;10.23;6.45;;;18.80;63.50;;;;;;5010818;28;20030;-53
2021/03/11 12:11:52;;;;;;;9.82;6.85;;;18.80;63.50;;;;;;5010709;28;20108;-48
2021/03/11 12:14:17;;;;;;;7.95;6.68;;;18.80;63.40;;;;;;5011274;28;20030;-48
2021/03/11 12:16:43;;;;;;;8.50;6.60;;;18.80;63.50;;;;;;5012380;28;20026;-50
2021/03/11 12:19:09;;;;;;;8.70;7.10;;;18.80;63.60;;;;;;4988401;28;20046;-52
2021/03/11 12:21:34;;;;;;;11.70;7.10;;;18.80;63.40;;;;;;4991994;28;20026;-49
2021/03/11 12:24:02;;;;;;;8.32;6.10;;;18.80;63.50;;;;;;5000213;28;20040;-51
2021/03/11 12:26:28;;;;;;;8.05;6.20;;;18.80;63.50;;;;;;4997638;28;20034;-47
2021/03/11 12:28:53;;;;;;;7.97;6.40;;;18.90;63.40;;;;;;4997425;28;20457;-49
2021/03/11 12:31:19;;;;;;;7.00;6.15;;;19.00;63.20;;;;;;4997668;28;20092;-49
2021/03/11 12:33:46;;;;;;;6.80;6.18;;;19.00;62.70;;;;;;5008397;28;20520;-43
2021/03/11 12:36:12;;;;;;;6.70;5.90;;;19.00;62.80;;;;;;5008806;28;20034;-44
2021/03/11 12:38:37;;;;;;;9.68;5.70;;;19.00;62.60;;;;;;5008329;28;20040;-42
2021/03/11 12:41:04;;;;;;;6.82;6.15;;;19.00;62.80;;;;;;4999412;28;20037;-45
2021/03/11 12:43:29;;;;;;;5.90;5.40;;;18.90;62.70;;;;;;5004657;28;20036;-45
2021/03/11 12:45:55;;;;;;;6.35;5.72;;;18.90;62.90;;;;;;5004896;28;20027;-49
2021/03/11 12:48:21;;;;;;;6.38;5.35;;;18.90;62.90;;;;;;5008045;28;20032;-52